sensor_id;sensor_type;location;lat;lon;timestamp;P1;durP1;ratioP1;P2;durP2;ratioP2
7173;SDS011;3628;48.654;8.932;2023-04-15T00:00:06;1.97;;;1.27;;
7173;SDS011;3628;48.654;8.932;2023-04-15T00:02:32;1.90;;;1.23;;
7173;SDS011;3628;48.654;8.932;2023-04-15T00:04:57;1.30;;;1.10;;
7173;SDS011;3628;48.654;8.932;2023-04-15T00:07:23;1.47;;;1.17;;
7173;SDS011;3628;48.654;8.932;2023-04-15T00:09:48;2.83;;;1.40;;
7173;SDS011;3628;48.654;8.932;2023-04-15T00:12:14;2.77;;;1.30;;
7173;SDS011;3628;48.654;8.932;2023-04-15T00:14:40;1.63;;;1.50;;
7173;SDS011;3628;48.654;8.932;2023-04-15T00:17:05;6.13;;;1.50;;
7173;SDS011;3628;48.654;8.932;2023-04-15T00:19:31;1.67;;;1.10;;
7173;SDS011;3628;48.654;8.932;2023-04-15T00:21:57;2.43;;;1.50;;
7173;SDS011;3628;48.654;8.932;2023-04-15T00:24:22;2.67;;;1.40;;
7173;SDS011;3628;48.654;8.932;2023-04-15T00:26:48;2.67;;;1.30;;
7173;SDS011;3628;48.654;8.932;2023-04-15T00:29:14;1.37;;;1.03;;
7173;SDS011;3628;48.654;8.932;2023-04-15T00:31:39;1.93;;;1.20;;
7173;SDS011;3628;48.654;8.932;2023-04-15T00:34:05;2.03;;;1.37;;
7173;SDS011;3628;48.654;8.932;2023-04-15T00:36:31;1.80;;;1.10;;
7173;SDS011;3628;48.654;8.932;2023-04-15T00:38:58;2.73;;;1.17;;
7173;SDS011;3628;48.654;8.932;2023-04-15T00:41:23;1.17;;;0.97;;
7173;SDS011;3628;48.654;8.932;2023-04-15T00:43:49;2.33;;;1.00;;
7173;SDS011;3628;48.654;8.932;2023-04-15T00:46:15;2.17;;;0.97;;
7173;SDS011;3628;48.654;8.932;2023-04-15T00:48:43;1.20;;;1.00;;
7173;SDS011;3628;48.654;8.932;2023-04-15T00:51:09;2.03;;;0.90;;
7173;SDS011;3628;48.654;8.932;2023-04-15T00:53:35;2.50;;;1.10;;
7173;SDS011;3628;48.654;8.932;2023-04-15T00:56:00;2.37;;;1.30;;
7173;SDS011;3628;48.654;8.932;2023-04-15T00:58:26;2.70;;;1.20;;
7173;SDS011;3628;48.654;8.932;2023-04-15T01:00:52;2.50;;;0.87;;
7173;SDS011;3628;48.654;8.932;2023-04-15T01:03:19;2.47;;;1.10;;
7173;SDS011;3628;48.654;8.932;2023-04-15T01:05:45;1.70;;;1.03;;
7173;SDS011;3628;48.654;8.932;2023-04-15T01:08:11;2.50;;;1.47;;
7173;SDS011;3628;48.654;8.932;2023-04-15T01:10:36;1.57;;;0.90;;
7173;SDS011;3628;48.654;8.932;2023-04-15T01:13:03;3.13;;;1.30;;
7173;SDS011;3628;48.654;8.932;2023-04-15T01:15:29;2.57;;;1.20;;
7173;SDS011;3628;48.654;8.932;2023-04-15T01:17:56;2.37;;;1.10;;
7173;SDS011;3628;48.654;8.932;2023-04-15T01:20:22;2.10;;;1.30;;
7173;SDS011;3628;48.654;8.932;2023-04-15T01:22:48;2.33;;;1.10;;
7173;SDS011;3628;48.654;8.932;2023-04-15T01:25:17;2.10;;;1.23;;
7173;SDS011;3628;48.654;8.932;2023-04-15T01:27:44;2.67;;;0.73;;
7173;SDS011;3628;48.654;8.932;2023-04-15T01:30:10;3.20;;;1.20;;
7173;SDS011;3628;48.654;8.932;2023-04-15T01:32:36;1.67;;;1.10;;
7173;SDS011;3628;48.654;8.932;2023-04-15T01:35:02;2.43;;;1.37;;
7173;SDS011;3628;48.654;8.932;2023-04-15T01:37:28;1.80;;;1.53;;
7173;SDS011;3628;48.654;8.932;2023-04-15T01:39:54;1.33;;;1.10;;
7173;SDS011;3628;48.654;8.932;2023-04-15T01:42:21;3.20;;;1.47;;
7173;SDS011;3628;48.654;8.932;2023-04-15T01:44:46;2.20;;;1.47;;
7173;SDS011;3628;48.654;8.932;2023-04-15T01:47:12;2.00;;;1.30;;
7173;SDS011;3628;48.654;8.932;2023-04-15T01:49:38;2.00;;;1.40;;
7173;SDS011;3628;48.654;8.932;2023-04-15T01:52:03;4.57;;;1.80;;
7173;SDS011;3628;48.654;8.932;2023-04-15T01:54:29;5.07;;;1.77;;
7173;SDS011;3628;48.654;8.932;2023-04-15T01:56:55;3.30;;;1.30;;
7173;SDS011;3628;48.654;8.932;2023-04-15T01:59:20;3.70;;;1.17;;
7173;SDS011;3628;48.654;8.932;2023-04-15T02:01:46;1.67;;;0.90;;
7173;SDS011;3628;48.654;8.932;2023-04-15T02:04:12;2.90;;;1.00;;
7173;SDS011;3628;48.654;8.932;2023-04-15T02:06:41;3.13;;;1.00;;
7173;SDS011;3628;48.654;8.932;2023-04-15T02:09:07;2.80;;;1.20;;
7173;SDS011;3628;48.654;8.932;2023-04-15T02:11:33;1.27;;;1.00;;
7173;SDS011;3628;48.654;8.932;2023-04-15T02:14:01;2.10;;;1.00;;
7173;SDS011;3628;48.654;8.932;2023-04-15T02:16:26;4.70;;;1.10;;
7173;SDS011;3628;48.654;8.932;2023-04-15T02:18:52;6.87;;;1.20;;
7173;SDS011;3628;48.654;8.932;2023-04-15T02:21:17;3.03;;;1.67;;
7173;SDS011;3628;48.654;8.932;2023-04-15T02:23:43;1.37;;;0.93;;
7173;SDS011;3628;48.654;8.932;2023-04-15T02:26:10;1.87;;;1.07;;
7173;SDS011;3628;48.654;8.932;2023-04-15T02:28:36;3.07;;;1.40;;
7173;SDS011;3628;48.654;8.932;2023-04-15T02:31:05;2.73;;;1.43;;
7173;SDS011;3628;48.654;8.932;2023-04-15T02:33:32;2.40;;;1.00;;
7173;SDS011;3628;48.654;8.932;2023-04-15T02:35:57;1.27;;;1.10;;
7173;SDS011;3628;48.654;8.932;2023-04-15T02:38:23;3.53;;;1.40;;
7173;SDS011;3628;48.654;8.932;2023-04-15T02:40:49;2.30;;;1.20;;
7173;SDS011;3628;48.654;8.932;2023-04-15T02:43:15;1.97;;;1.30;;
7173;SDS011;3628;48.654;8.932;2023-04-15T02:45:44;2.27;;;1.57;;
7173;SDS011;3628;48.654;8.932;2023-04-15T02:48:11;3.53;;;1.60;;
7173;SDS011;3628;48.654;8.932;2023-04-15T02:50:36;2.03;;;1.27;;
7173;SDS011;3628;48.654;8.932;2023-04-15T02:53:05;1.97;;;1.27;;
7173;SDS011;3628;48.654;8.932;2023-04-15T02:55:37;3.97;;;1.77;;
7173;SDS011;3628;48.654;8.932;2023-04-15T02:58:02;2.67;;;1.43;;
7173;SDS011;3628;48.654;8.932;2023-04-15T03:00:28;4.57;;;1.17;;
7173;SDS011;3628;48.654;8.932;2023-04-15T03:02:57;4.73;;;1.80;;
7173;SDS011;3628;48.654;8.932;2023-04-15T03:05:29;3.03;;;1.40;;
7173;SDS011;3628;48.654;8.932;2023-04-15T03:07:55;3.87;;;1.40;;
7173;SDS011;3628;48.654;8.932;2023-04-15T03:10:21;1.50;;;1.30;;
7173;SDS011;3628;48.654;8.932;2023-04-15T03:12:47;7.03;;;1.90;;
7173;SDS011;3628;48.654;8.932;2023-04-15T03:15:13;2.17;;;1.10;;
7173;SDS011;3628;48.654;8.932;2023-04-15T03:17:38;3.63;;;1.43;;
7173;SDS011;3628;48.654;8.932;2023-04-15T03:20:04;3.80;;;1.10;;
7173;SDS011;3628;48.654;8.932;2023-04-15T03:22:31;1.43;;;1.20;;
7173;SDS011;3628;48.654;8.932;2023-04-15T03:24:57;1.93;;;1.10;;
7173;SDS011;3628;48.654;8.932;2023-04-15T03:27:23;4.33;;;1.00;;
7173;SDS011;3628;48.654;8.932;2023-04-15T03:29:49;3.33;;;1.10;;
7173;SDS011;3628;48.654;8.932;2023-04-15T03:32:14;1.70;;;1.03;;
7173;SDS011;3628;48.654;8.932;2023-04-15T03:34:40;1.53;;;1.00;;
7173;SDS011;3628;48.654;8.932;2023-04-15T03:37:06;1.93;;;0.93;;
7173;SDS011;3628;48.654;8.932;2023-04-15T03:39:32;2.37;;;1.20;;
7173;SDS011;3628;48.654;8.932;2023-04-15T03:41:58;1.27;;;0.93;;
7173;SDS011;3628;48.654;8.932;2023-04-15T03:44:25;2.47;;;0.93;;
7173;SDS011;3628;48.654;8.932;2023-04-15T03:46:51;3.23;;;1.10;;
7173;SDS011;3628;48.654;8.932;2023-04-15T03:49:16;2.83;;;1.23;;
7173;SDS011;3628;48.654;8.932;2023-04-15T03:51:43;3.27;;;1.23;;
7173;SDS011;3628;48.654;8.932;2023-04-15T03:54:09;3.37;;;1.67;;
7173;SDS011;3628;48.654;8.932;2023-04-15T03:56:35;2.23;;;1.20;;
7173;SDS011;3628;48.654;8.932;2023-04-15T03:59:01;2.13;;;1.37;;
7173;SDS011;3628;48.654;8.932;2023-04-15T04:01:26;2.57;;;1.93;;
7173;SDS011;3628;48.654;8.932;2023-04-15T04:03:52;7.57;;;2.53;;
7173;SDS011;3628;48.654;8.932;2023-04-15T04:06:18;3.40;;;1.40;;
7173;SDS011;3628;48.654;8.932;2023-04-15T04:08:43;3.40;;;1.40;;
7173;SDS011;3628;48.654;8.932;2023-04-15T04:11:09;1.20;;;1.10;;
7173;SDS011;3628;48.654;8.932;2023-04-15T04:13:35;1.17;;;1.00;;
7173;SDS011;3628;48.654;8.932;2023-04-15T04:16:00;2.10;;;1.13;;
7173;SDS011;3628;48.654;8.932;2023-04-15T04:18:28;1.43;;;1.00;;
7173;SDS011;3628;48.654;8.932;2023-04-15T04:20:53;2.37;;;1.30;;
7173;SDS011;3628;48.654;8.932;2023-04-15T04:23:19;1.40;;;1.30;;
7173;SDS011;3628;48.654;8.932;2023-04-15T04:25:45;1.87;;;1.30;;
7173;SDS011;3628;48.654;8.932;2023-04-15T04:28:10;2.87;;;1.37;;
7173;SDS011;3628;48.654;8.932;2023-04-15T04:30:36;2.50;;;1.60;;
7173;SDS011;3628;48.654;8.932;2023-04-15T04:33:02;2.33;;;1.20;;
7173;SDS011;3628;48.654;8.932;2023-04-15T04:35:27;2.33;;;1.50;;
7173;SDS011;3628;48.654;8.932;2023-04-15T04:37:53;2.97;;;1.33;;
7173;SDS011;3628;48.654;8.932;2023-04-15T04:40:18;2.77;;;1.70;;
7173;SDS011;3628;48.654;8.932;2023-04-15T04:42:44;1.80;;;1.27;;
7173;SDS011;3628;48.654;8.932;2023-04-15T04:45:10;2.07;;;1.30;;
7173;SDS011;3628;48.654;8.932;2023-04-15T04:47:35;2.43;;;1.17;;
7173;SDS011;3628;48.654;8.932;2023-04-15T04:50:01;2.10;;;1.20;;
7173;SDS011;3628;48.654;8.932;2023-04-15T04:52:27;2.60;;;1.37;;
7173;SDS011;3628;48.654;8.932;2023-04-15T04:54:53;1.27;;;1.10;;
7173;SDS011;3628;48.654;8.932;2023-04-15T04:57:18;4.63;;;1.57;;
7173;SDS011;3628;48.654;8.932;2023-04-15T04:59:44;3.90;;;1.53;;
7173;SDS011;3628;48.654;8.932;2023-04-15T05:02:09;3.10;;;1.23;;
7173;SDS011;3628;48.654;8.932;2023-04-15T05:04:35;4.30;;;1.43;;
7173;SDS011;3628;48.654;8.932;2023-04-15T05:07:01;2.07;;;0.97;;
7173;SDS011;3628;48.654;8.932;2023-04-15T05:09:26;2.00;;;1.23;;
7173;SDS011;3628;48.654;8.932;2023-04-15T05:11:52;2.10;;;1.00;;
7173;SDS011;3628;48.654;8.932;2023-04-15T05:14:17;1.63;;;1.40;;
7173;SDS011;3628;48.654;8.932;2023-04-15T05:16:43;2.27;;;1.27;;
7173;SDS011;3628;48.654;8.932;2023-04-15T05:19:08;2.57;;;1.47;;
7173;SDS011;3628;48.654;8.932;2023-04-15T05:21:34;2.60;;;1.10;;
7173;SDS011;3628;48.654;8.932;2023-04-15T05:24:00;3.23;;;1.50;;
7173;SDS011;3628;48.654;8.932;2023-04-15T05:26:25;3.87;;;1.90;;
7173;SDS011;3628;48.654;8.932;2023-04-15T05:28:51;1.77;;;1.57;;
7173;SDS011;3628;48.654;8.932;2023-04-15T05:31:16;2.97;;;1.97;;
7173;SDS011;3628;48.654;8.932;2023-04-15T05:33:42;3.00;;;1.57;;
7173;SDS011;3628;48.654;8.932;2023-04-15T05:36:08;3.50;;;1.60;;
7173;SDS011;3628;48.654;8.932;2023-04-15T05:38:33;2.63;;;1.40;;
7173;SDS011;3628;48.654;8.932;2023-04-15T05:40:59;5.07;;;1.80;;
7173;SDS011;3628;48.654;8.932;2023-04-15T05:43:25;4.20;;;1.73;;
7173;SDS011;3628;48.654;8.932;2023-04-15T05:45:51;5.10;;;1.70;;
7173;SDS011;3628;48.654;8.932;2023-04-15T05:48:17;4.27;;;1.73;;
7173;SDS011;3628;48.654;8.932;2023-04-15T05:50:42;4.63;;;1.60;;
7173;SDS011;3628;48.654;8.932;2023-04-15T05:53:08;3.03;;;1.47;;
7173;SDS011;3628;48.654;8.932;2023-04-15T05:55:33;2.00;;;1.80;;
7173;SDS011;3628;48.654;8.932;2023-04-15T05:57:59;2.43;;;1.53;;
7173;SDS011;3628;48.654;8.932;2023-04-15T06:00:25;2.33;;;1.30;;
7173;SDS011;3628;48.654;8.932;2023-04-15T06:02:51;2.20;;;1.60;;
7173;SDS011;3628;48.654;8.932;2023-04-15T06:05:17;2.67;;;1.50;;
7173;SDS011;3628;48.654;8.932;2023-04-15T06:07:43;1.53;;;1.43;;
7173;SDS011;3628;48.654;8.932;2023-04-15T06:10:08;1.87;;;1.50;;
7173;SDS011;3628;48.654;8.932;2023-04-15T06:12:34;3.17;;;1.70;;
7173;SDS011;3628;48.654;8.932;2023-04-15T06:15:00;3.37;;;1.70;;
7173;SDS011;3628;48.654;8.932;2023-04-15T06:17:25;3.43;;;1.73;;
7173;SDS011;3628;48.654;8.932;2023-04-15T06:19:51;2.77;;;1.80;;
7173;SDS011;3628;48.654;8.932;2023-04-15T06:22:23;3.37;;;1.97;;
7173;SDS011;3628;48.654;8.932;2023-04-15T06:24:49;4.57;;;1.70;;
7173;SDS011;3628;48.654;8.932;2023-04-15T06:27:15;3.63;;;2.20;;
7173;SDS011;3628;48.654;8.932;2023-04-15T06:29:41;2.93;;;2.07;;
7173;SDS011;3628;48.654;8.932;2023-04-15T06:32:07;3.33;;;2.10;;
7173;SDS011;3628;48.654;8.932;2023-04-15T06:34:32;2.63;;;1.90;;
7173;SDS011;3628;48.654;8.932;2023-04-15T06:36:58;2.57;;;1.90;;
7173;SDS011;3628;48.654;8.932;2023-04-15T06:39:24;3.47;;;1.70;;
7173;SDS011;3628;48.654;8.932;2023-04-15T06:41:50;3.27;;;1.80;;
7173;SDS011;3628;48.654;8.932;2023-04-15T06:44:16;2.53;;;1.80;;
7173;SDS011;3628;48.654;8.932;2023-04-15T06:46:42;2.63;;;1.93;;
7173;SDS011;3628;48.654;8.932;2023-04-15T06:49:08;2.87;;;1.90;;
7173;SDS011;3628;48.654;8.932;2023-04-15T06:51:35;3.13;;;1.70;;
7173;SDS011;3628;48.654;8.932;2023-04-15T06:54:01;2.50;;;1.90;;
7173;SDS011;3628;48.654;8.932;2023-04-15T06:56:29;3.83;;;1.80;;
7173;SDS011;3628;48.654;8.932;2023-04-15T06:58:58;3.60;;;1.90;;
7173;SDS011;3628;48.654;8.932;2023-04-15T07:01:23;3.63;;;2.10;;
7173;SDS011;3628;48.654;8.932;2023-04-15T07:03:49;2.80;;;2.10;;
7173;SDS011;3628;48.654;8.932;2023-04-15T07:06:15;3.93;;;2.17;;
7173;SDS011;3628;48.654;8.932;2023-04-15T07:08:41;6.53;;;1.63;;
7173;SDS011;3628;48.654;8.932;2023-04-15T07:11:06;6.03;;;2.17;;
7173;SDS011;3628;48.654;8.932;2023-04-15T07:13:32;3.00;;;1.70;;
7173;SDS011;3628;48.654;8.932;2023-04-15T07:15:58;4.73;;;2.07;;
7173;SDS011;3628;48.654;8.932;2023-04-15T07:18:24;3.23;;;2.40;;
7173;SDS011;3628;48.654;8.932;2023-04-15T07:20:49;2.50;;;1.90;;
7173;SDS011;3628;48.654;8.932;2023-04-15T07:23:15;4.77;;;1.80;;
7173;SDS011;3628;48.654;8.932;2023-04-15T07:25:41;5.67;;;2.03;;
7173;SDS011;3628;48.654;8.932;2023-04-15T07:28:06;3.50;;;2.00;;
7173;SDS011;3628;48.654;8.932;2023-04-15T07:30:32;2.60;;;1.70;;
7173;SDS011;3628;48.654;8.932;2023-04-15T07:32:58;2.87;;;1.80;;
7173;SDS011;3628;48.654;8.932;2023-04-15T07:35:24;3.10;;;1.57;;
7173;SDS011;3628;48.654;8.932;2023-04-15T07:37:50;3.27;;;1.70;;
7173;SDS011;3628;48.654;8.932;2023-04-15T07:40:16;2.50;;;1.53;;
7173;SDS011;3628;48.654;8.932;2023-04-15T07:42:42;3.43;;;1.60;;
7173;SDS011;3628;48.654;8.932;2023-04-15T07:45:08;3.87;;;1.63;;
7173;SDS011;3628;48.654;8.932;2023-04-15T07:47:34;5.33;;;1.83;;
7173;SDS011;3628;48.654;8.932;2023-04-15T07:50:00;5.37;;;1.77;;
7173;SDS011;3628;48.654;8.932;2023-04-15T07:52:26;4.10;;;1.80;;
7173;SDS011;3628;48.654;8.932;2023-04-15T07:54:52;3.27;;;1.73;;
7173;SDS011;3628;48.654;8.932;2023-04-15T07:57:17;3.30;;;1.70;;
7173;SDS011;3628;48.654;8.932;2023-04-15T07:59:43;4.60;;;1.90;;
7173;SDS011;3628;48.654;8.932;2023-04-15T08:02:09;3.07;;;1.70;;
7173;SDS011;3628;48.654;8.932;2023-04-15T08:04:35;5.67;;;1.70;;
7173;SDS011;3628;48.654;8.932;2023-04-15T08:07:01;2.77;;;1.43;;
7173;SDS011;3628;48.654;8.932;2023-04-15T08:09:27;3.03;;;1.63;;
7173;SDS011;3628;48.654;8.932;2023-04-15T08:11:53;2.57;;;1.50;;
7173;SDS011;3628;48.654;8.932;2023-04-15T08:14:19;4.63;;;1.70;;
7173;SDS011;3628;48.654;8.932;2023-04-15T08:16:44;6.23;;;1.77;;
7173;SDS011;3628;48.654;8.932;2023-04-15T08:19:10;3.87;;;1.67;;
7173;SDS011;3628;48.654;8.932;2023-04-15T08:21:35;2.77;;;1.47;;
7173;SDS011;3628;48.654;8.932;2023-04-15T08:24:01;4.03;;;1.50;;
7173;SDS011;3628;48.654;8.932;2023-04-15T08:26:27;2.50;;;1.40;;
7173;SDS011;3628;48.654;8.932;2023-04-15T08:28:52;1.93;;;1.40;;
7173;SDS011;3628;48.654;8.932;2023-04-15T08:31:18;2.17;;;1.13;;
7173;SDS011;3628;48.654;8.932;2023-04-15T08:33:44;5.13;;;1.77;;
7173;SDS011;3628;48.654;8.932;2023-04-15T08:36:10;3.90;;;1.57;;
7173;SDS011;3628;48.654;8.932;2023-04-15T08:38:36;2.43;;;1.17;;
7173;SDS011;3628;48.654;8.932;2023-04-15T08:41:11;4.00;;;1.13;;
7173;SDS011;3628;48.654;8.932;2023-04-15T08:43:57;4.23;;;1.57;;
7173;SDS011;3628;48.654;8.932;2023-04-15T08:46:26;5.17;;;1.20;;
7173;SDS011;3628;48.654;8.932;2023-04-15T08:48:52;3.50;;;1.27;;
7173;SDS011;3628;48.654;8.932;2023-04-15T08:51:23;1.87;;;1.10;;
7173;SDS011;3628;48.654;8.932;2023-04-15T08:53:49;4.40;;;1.37;;
7173;SDS011;3628;48.654;8.932;2023-04-15T08:56:16;2.63;;;1.00;;
7173;SDS011;3628;48.654;8.932;2023-04-15T08:58:43;1.70;;;0.90;;
7173;SDS011;3628;48.654;8.932;2023-04-15T09:01:12;3.93;;;1.10;;
7173;SDS011;3628;48.654;8.932;2023-04-15T09:03:38;3.37;;;1.03;;
7173;SDS011;3628;48.654;8.932;2023-04-15T09:06:04;2.03;;;1.30;;
7173;SDS011;3628;48.654;8.932;2023-04-15T09:08:31;2.50;;;1.20;;
7173;SDS011;3628;48.654;8.932;2023-04-15T09:10:58;2.27;;;1.10;;
7173;SDS011;3628;48.654;8.932;2023-04-15T09:13:24;4.20;;;0.90;;
7173;SDS011;3628;48.654;8.932;2023-04-15T09:15:50;3.07;;;0.80;;
7173;SDS011;3628;48.654;8.932;2023-04-15T09:18:32;3.70;;;1.30;;
7173;SDS011;3628;48.654;8.932;2023-04-15T09:21:05;2.10;;;1.20;;
7173;SDS011;3628;48.654;8.932;2023-04-15T09:23:32;3.37;;;1.17;;
7173;SDS011;3628;48.654;8.932;2023-04-15T09:25:59;1.83;;;0.70;;
7173;SDS011;3628;48.654;8.932;2023-04-15T09:28:26;3.30;;;1.00;;
7173;SDS011;3628;48.654;8.932;2023-04-15T09:30:59;2.77;;;1.00;;
7173;SDS011;3628;48.654;8.932;2023-04-15T09:33:26;1.97;;;1.17;;
7173;SDS011;3628;48.654;8.932;2023-04-15T09:35:59;3.37;;;1.00;;
7173;SDS011;3628;48.654;8.932;2023-04-15T09:38:27;2.80;;;1.00;;
7173;SDS011;3628;48.654;8.932;2023-04-15T09:40:53;4.40;;;1.10;;
7173;SDS011;3628;48.654;8.932;2023-04-15T09:43:19;4.20;;;1.57;;
7173;SDS011;3628;48.654;8.932;2023-04-15T09:45:49;1.50;;;1.00;;
7173;SDS011;3628;48.654;8.932;2023-04-15T09:48:22;3.90;;;1.30;;
7173;SDS011;3628;48.654;8.932;2023-04-15T09:50:52;2.40;;;1.23;;
7173;SDS011;3628;48.654;8.932;2023-04-15T09:53:18;2.20;;;1.03;;
7173;SDS011;3628;48.654;8.932;2023-04-15T09:55:52;1.97;;;1.17;;
7173;SDS011;3628;48.654;8.932;2023-04-15T09:58:26;3.00;;;1.10;;
7173;SDS011;3628;48.654;8.932;2023-04-15T10:00:53;1.50;;;0.90;;
7173;SDS011;3628;48.654;8.932;2023-04-15T10:03:22;2.53;;;1.00;;
7173;SDS011;3628;48.654;8.932;2023-04-15T10:05:49;2.47;;;1.03;;
7173;SDS011;3628;48.654;8.932;2023-04-15T10:08:17;2.53;;;0.80;;
7173;SDS011;3628;48.654;8.932;2023-04-15T10:10:48;2.50;;;0.83;;
7173;SDS011;3628;48.654;8.932;2023-04-15T10:13:16;2.17;;;1.10;;
7173;SDS011;3628;48.654;8.932;2023-04-15T10:15:43;2.70;;;0.90;;
7173;SDS011;3628;48.654;8.932;2023-04-15T10:18:16;1.23;;;1.03;;
7173;SDS011;3628;48.654;8.932;2023-04-15T10:20:45;2.17;;;1.17;;
7173;SDS011;3628;48.654;8.932;2023-04-15T10:23:12;2.53;;;1.20;;
7173;SDS011;3628;48.654;8.932;2023-04-15T10:25:39;1.43;;;1.07;;
7173;SDS011;3628;48.654;8.932;2023-04-15T10:28:05;1.83;;;0.93;;
7173;SDS011;3628;48.654;8.932;2023-04-15T10:30:32;3.80;;;1.20;;
7173;SDS011;3628;48.654;8.932;2023-04-15T10:32:59;2.53;;;0.90;;
7173;SDS011;3628;48.654;8.932;2023-04-15T10:35:26;1.47;;;0.90;;
7173;SDS011;3628;48.654;8.932;2023-04-15T10:37:54;4.73;;;1.30;;
7173;SDS011;3628;48.654;8.932;2023-04-15T10:40:27;2.10;;;1.07;;
7173;SDS011;3628;48.654;8.932;2023-04-15T10:42:59;2.10;;;0.90;;
7173;SDS011;3628;48.654;8.932;2023-04-15T10:45:27;1.90;;;0.87;;
7173;SDS011;3628;48.654;8.932;2023-04-15T10:47:56;2.67;;;0.90;;
7173;SDS011;3628;48.654;8.932;2023-04-15T10:50:25;1.37;;;0.80;;
7173;SDS011;3628;48.654;8.932;2023-04-15T10:52:54;2.40;;;0.70;;
7173;SDS011;3628;48.654;8.932;2023-04-15T10:55:24;2.47;;;0.70;;
7173;SDS011;3628;48.654;8.932;2023-04-15T10:57:55;1.97;;;0.80;;
7173;SDS011;3628;48.654;8.932;2023-04-15T11:00:24;1.23;;;0.80;;
7173;SDS011;3628;48.654;8.932;2023-04-15T11:05:18;1.63;;;0.60;;
7173;SDS011;3628;48.654;8.932;2023-04-15T11:12:50;2.03;;;0.90;;
7173;SDS011;3628;48.654;8.932;2023-04-15T11:18:13;2.90;;;1.10;;
7173;SDS011;3628;48.654;8.932;2023-04-15T11:20:39;2.60;;;1.30;;
7173;SDS011;3628;48.654;8.932;2023-04-15T11:23:06;1.70;;;0.83;;
7173;SDS011;3628;48.654;8.932;2023-04-15T11:25:33;3.67;;;0.93;;
7173;SDS011;3628;48.654;8.932;2023-04-15T11:27:59;2.50;;;1.17;;
7173;SDS011;3628;48.654;8.932;2023-04-15T11:30:27;2.67;;;1.20;;
7173;SDS011;3628;48.654;8.932;2023-04-15T11:32:57;2.93;;;1.30;;
7173;SDS011;3628;48.654;8.932;2023-04-15T11:35:24;2.73;;;1.07;;
7173;SDS011;3628;48.654;8.932;2023-04-15T11:37:50;1.93;;;1.10;;
7173;SDS011;3628;48.654;8.932;2023-04-15T11:40:16;3.60;;;1.30;;
7173;SDS011;3628;48.654;8.932;2023-04-15T11:43:02;2.13;;;1.10;;
7173;SDS011;3628;48.654;8.932;2023-04-15T11:45:28;2.07;;;1.10;;
7173;SDS011;3628;48.654;8.932;2023-04-15T11:47:54;2.00;;;1.27;;
7173;SDS011;3628;48.654;8.932;2023-04-15T11:50:33;2.33;;;1.30;;
7173;SDS011;3628;48.654;8.932;2023-04-15T11:53:01;1.93;;;1.53;;
7173;SDS011;3628;48.654;8.932;2023-04-15T11:55:30;2.30;;;1.20;;
7173;SDS011;3628;48.654;8.932;2023-04-15T11:58:13;2.33;;;1.40;;
7173;SDS011;3628;48.654;8.932;2023-04-15T12:00:42;3.27;;;1.50;;
7173;SDS011;3628;48.654;8.932;2023-04-15T12:03:34;3.43;;;1.20;;
7173;SDS011;3628;48.654;8.932;2023-04-15T12:11:40;2.03;;;0.97;;
7173;SDS011;3628;48.654;8.932;2023-04-15T12:16:53;3.47;;;1.70;;
7173;SDS011;3628;48.654;8.932;2023-04-15T12:19:23;3.03;;;1.50;;
7173;SDS011;3628;48.654;8.932;2023-04-15T12:21:51;3.17;;;1.33;;
7173;SDS011;3628;48.654;8.932;2023-04-15T12:24:21;2.90;;;1.50;;
7173;SDS011;3628;48.654;8.932;2023-04-15T12:26:54;5.33;;;1.50;;
7173;SDS011;3628;48.654;8.932;2023-04-15T12:29:25;4.10;;;1.50;;
7173;SDS011;3628;48.654;8.932;2023-04-15T12:31:55;4.63;;;1.87;;
7173;SDS011;3628;48.654;8.932;2023-04-15T12:34:26;3.93;;;1.50;;
7173;SDS011;3628;48.654;8.932;2023-04-15T12:36:54;4.90;;;2.00;;
7173;SDS011;3628;48.654;8.932;2023-04-15T12:39:23;4.17;;;1.60;;
7173;SDS011;3628;48.654;8.932;2023-04-15T12:41:49;2.70;;;1.50;;
7173;SDS011;3628;48.654;8.932;2023-04-15T12:44:15;6.67;;;1.90;;
7173;SDS011;3628;48.654;8.932;2023-04-15T12:46:41;2.77;;;1.87;;
7173;SDS011;3628;48.654;8.932;2023-04-15T12:49:06;3.13;;;1.77;;
7173;SDS011;3628;48.654;8.932;2023-04-15T12:51:33;3.70;;;2.00;;
7173;SDS011;3628;48.654;8.932;2023-04-15T12:53:58;4.83;;;1.80;;
7173;SDS011;3628;48.654;8.932;2023-04-15T12:56:24;5.30;;;1.87;;
7173;SDS011;3628;48.654;8.932;2023-04-15T12:58:49;6.10;;;2.10;;
7173;SDS011;3628;48.654;8.932;2023-04-15T13:01:15;3.13;;;1.67;;
7173;SDS011;3628;48.654;8.932;2023-04-15T13:03:41;5.37;;;1.60;;
7173;SDS011;3628;48.654;8.932;2023-04-15T13:06:07;4.80;;;1.80;;
7173;SDS011;3628;48.654;8.932;2023-04-15T13:08:32;3.30;;;1.77;;
7173;SDS011;3628;48.654;8.932;2023-04-15T13:10:58;2.43;;;1.20;;
7173;SDS011;3628;48.654;8.932;2023-04-15T13:13:24;3.73;;;1.90;;
7173;SDS011;3628;48.654;8.932;2023-04-15T13:15:49;2.23;;;1.83;;
7173;SDS011;3628;48.654;8.932;2023-04-15T13:18:15;3.17;;;1.80;;
7173;SDS011;3628;48.654;8.932;2023-04-15T13:20:40;2.83;;;1.70;;
7173;SDS011;3628;48.654;8.932;2023-04-15T13:23:06;3.27;;;1.77;;
7173;SDS011;3628;48.654;8.932;2023-04-15T13:25:32;4.00;;;1.40;;
7173;SDS011;3628;48.654;8.932;2023-04-15T13:27:57;3.23;;;1.57;;
7173;SDS011;3628;48.654;8.932;2023-04-15T13:30:25;1.97;;;1.70;;
7173;SDS011;3628;48.654;8.932;2023-04-15T13:32:51;4.23;;;1.90;;
7173;SDS011;3628;48.654;8.932;2023-04-15T13:35:17;2.57;;;1.67;;
7173;SDS011;3628;48.654;8.932;2023-04-15T13:37:43;3.10;;;1.80;;
7173;SDS011;3628;48.654;8.932;2023-04-15T13:40:09;5.13;;;1.70;;
7173;SDS011;3628;48.654;8.932;2023-04-15T13:42:35;5.47;;;2.10;;
7173;SDS011;3628;48.654;8.932;2023-04-15T13:45:01;3.17;;;2.13;;
7173;SDS011;3628;48.654;8.932;2023-04-15T13:47:27;2.73;;;2.00;;
7173;SDS011;3628;48.654;8.932;2023-04-15T13:49:52;4.17;;;2.27;;
7173;SDS011;3628;48.654;8.932;2023-04-15T13:52:20;4.57;;;2.37;;
7173;SDS011;3628;48.654;8.932;2023-04-15T13:54:46;2.33;;;2.00;;
7173;SDS011;3628;48.654;8.932;2023-04-15T13:57:12;3.03;;;1.93;;
7173;SDS011;3628;48.654;8.932;2023-04-15T13:59:37;2.50;;;1.80;;
7173;SDS011;3628;48.654;8.932;2023-04-15T14:02:03;4.60;;;2.03;;
7173;SDS011;3628;48.654;8.932;2023-04-15T14:04:29;2.60;;;1.97;;
7173;SDS011;3628;48.654;8.932;2023-04-15T14:06:55;2.20;;;2.00;;
7173;SDS011;3628;48.654;8.932;2023-04-15T14:09:21;3.87;;;1.50;;
7173;SDS011;3628;48.654;8.932;2023-04-15T14:11:48;2.87;;;1.50;;
7173;SDS011;3628;48.654;8.932;2023-04-15T14:14:16;5.00;;;1.50;;
7173;SDS011;3628;48.654;8.932;2023-04-15T14:16:42;1.63;;;1.40;;
7173;SDS011;3628;48.654;8.932;2023-04-15T14:19:07;4.37;;;1.90;;
7173;SDS011;3628;48.654;8.932;2023-04-15T14:21:33;3.73;;;1.57;;
7173;SDS011;3628;48.654;8.932;2023-04-15T14:23:59;2.50;;;1.37;;
7173;SDS011;3628;48.654;8.932;2023-04-15T14:26:24;1.67;;;1.17;;
7173;SDS011;3628;48.654;8.932;2023-04-15T14:28:50;2.90;;;1.53;;
7173;SDS011;3628;48.654;8.932;2023-04-15T14:31:15;1.50;;;1.40;;
7173;SDS011;3628;48.654;8.932;2023-04-15T14:33:41;3.40;;;1.43;;
7173;SDS011;3628;48.654;8.932;2023-04-15T14:36:07;3.37;;;1.50;;
7173;SDS011;3628;48.654;8.932;2023-04-15T14:38:34;1.97;;;1.10;;
7173;SDS011;3628;48.654;8.932;2023-04-15T14:41:02;2.83;;;1.20;;
7173;SDS011;3628;48.654;8.932;2023-04-15T14:43:28;1.80;;;1.07;;
7173;SDS011;3628;48.654;8.932;2023-04-15T14:45:54;1.83;;;1.17;;
7173;SDS011;3628;48.654;8.932;2023-04-15T14:48:19;2.20;;;0.93;;
7173;SDS011;3628;48.654;8.932;2023-04-15T14:50:45;1.47;;;1.00;;
7173;SDS011;3628;48.654;8.932;2023-04-15T14:53:11;2.40;;;1.20;;
7173;SDS011;3628;48.654;8.932;2023-04-15T14:55:36;2.67;;;1.30;;
7173;SDS011;3628;48.654;8.932;2023-04-15T14:58:02;3.63;;;1.23;;
7173;SDS011;3628;48.654;8.932;2023-04-15T15:00:28;2.10;;;1.23;;
7173;SDS011;3628;48.654;8.932;2023-04-15T15:02:54;2.03;;;1.20;;
7173;SDS011;3628;48.654;8.932;2023-04-15T15:05:20;2.40;;;1.60;;
7173;SDS011;3628;48.654;8.932;2023-04-15T15:07:45;2.03;;;1.33;;
7173;SDS011;3628;48.654;8.932;2023-04-15T15:10:11;2.67;;;1.60;;
7173;SDS011;3628;48.654;8.932;2023-04-15T15:12:36;2.73;;;1.60;;
7173;SDS011;3628;48.654;8.932;2023-04-15T15:15:03;1.73;;;1.30;;
7173;SDS011;3628;48.654;8.932;2023-04-15T15:17:29;3.10;;;1.60;;
7173;SDS011;3628;48.654;8.932;2023-04-15T15:19:55;2.43;;;1.30;;
7173;SDS011;3628;48.654;8.932;2023-04-15T15:22:20;1.63;;;1.53;;
7173;SDS011;3628;48.654;8.932;2023-04-15T15:24:46;2.60;;;1.60;;
7173;SDS011;3628;48.654;8.932;2023-04-15T15:27:11;4.40;;;1.70;;
7173;SDS011;3628;48.654;8.932;2023-04-15T15:29:37;3.53;;;1.40;;